Terminal Aerodrome Forecast
Issued by NWS

Home | Current Version | Previous Version | Text Only | Print | Product List | Glossary On
Versions: 1 2 3 4 5 6 7 8 9 10 11 12 13 14 15 16 17
479
FTUS44 KEPZ 300208 AAB
TAFTCS
TAF AMD
KTCS 300208Z 3002/3024 32011KT P6SM VCTS FEW100CB BKN250
      TEMPO 3002/3004 32012G22KT
     FM300400 33006KT P6SM FEW100 SCT250
     FM301700 19008KT P6SM VCTS FEW080CB SCT250=

USA.gov is the U.S. government's official web portal to all federal, state and local government web resources and services.